Time;durP1;ratioP1;P1;durP2;ratioP2;P2;SDS_P1;SDS_P2;PMS_P1;PMS_P2;Temp;Humidity;BMP_temperature;BMP_pressure;BME280_temperature;BME280_humidity;BME280_pressure;Samples;Min_cycle;Max_cycle;Signal;HPM_P1;HPM_P2
2023/05/11 00:00:10;;;;;;;19.30;7.30;;;;;;;5.99;100.00;101269.95;105667;1259;75458;-50
2023/05/11 00:02:37;;;;;;;17.40;6.80;;;;;;;5.98;100.00;101271.98;105649;1254;64805;-49
2023/05/11 00:05:06;;;;;;;16.80;6.40;;;;;;;5.96;100.00;101262.70;105743;1258;63609;-49
2023/05/11 00:07:32;;;;;;;14.70;7.20;;;;;;;5.94;100.00;101266.63;105677;1254;76600;-50
2023/05/11 00:09:59;;;;;;;14.20;7.20;;;;;;;5.94;100.00;101265.09;105699;1259;67352;-49
2023/05/11 00:12:26;;;;;;;17.10;7.70;;;;;;;5.93;100.00;101267.63;105664;1258;74942;-50
2023/05/11 00:14:53;;;;;;;16.50;7.20;;;;;;;5.89;100.00;101268.26;105646;1254;64444;-49
2023/05/11 00:17:21;;;;;;;16.10;6.90;;;;;;;5.86;100.00;101266.34;105702;1254;62904;-49
2023/05/11 00:19:48;;;;;;;23.00;8.00;;;;;;;5.82;100.00;101268.52;105755;1254;75612;-49
2023/05/11 00:22:15;;;;;;;14.70;7.40;;;;;;;5.79;100.00;101267.77;105685;1257;65195;-49
2023/05/11 00:24:42;;;;;;;15.80;7.80;;;;;;;5.76;100.00;101278.87;105681;1259;74852;-50
2023/05/11 00:27:09;;;;;;;20.10;8.00;;;;;;;5.74;100.00;101293.75;105634;1254;63785;-49
2023/05/11 00:29:37;;;;;;;16.40;7.90;;;;;;;5.72;100.00;101309.64;105674;1255;62002;-49
2023/05/11 00:32:04;;;;;;;20.40;8.30;;;;;;;5.69;100.00;101327.41;105661;1257;75992;-49
2023/05/11 00:34:30;;;;;;;14.50;7.40;;;;;;;5.66;100.00;101338.66;105708;1254;67293;-50
2023/05/11 00:36:57;;;;;;;14.70;7.90;;;;;;;5.66;100.00;101350.99;105683;1254;75046;-50
2023/05/11 00:39:24;;;;;;;14.40;8.00;;;;;;;5.69;100.00;101364.92;105672;1259;61910;-50
2023/05/11 00:41:52;;;;;;;19.10;7.70;;;;;;;5.70;100.00;101372.15;105678;1257;62048;-49
2023/05/11 00:44:21;;;;;;;16.50;7.20;;;;;;;5.72;100.00;101385.88;105671;1254;75251;-50
2023/05/11 00:46:48;;;;;;;19.70;7.30;;;;;;;5.73;100.00;101398.73;105737;1254;67530;-50
2023/05/11 00:49:16;;;;;;;12.20;7.10;;;;;;;5.70;100.00;101410.50;105654;1257;74211;-50
2023/05/11 00:51:43;;;;;;;20.90;7.30;;;;;;;5.66;100.00;101417.10;105747;1258;61067;-48
2023/05/11 00:54:14;;;;;;;11.80;6.60;;;;;;;5.66;100.00;101420.02;105668;1254;62890;-49
2023/05/11 00:56:41;;;;;;;14.90;6.80;;;;;;;5.67;100.00;101409.58;105695;1254;75625;-49
2023/05/11 00:59:08;;;;;;;18.50;6.80;;;;;;;5.64;100.00;101406.78;105664;1254;68010;-49
2023/05/11 01:01:37;;;;;;;19.50;7.20;;;;;;;5.59;100.00;101403.11;105658;1254;75304;-50
2023/05/11 01:04:04;;;;;;;18.00;6.60;;;;;;;5.55;100.00;101400.81;105640;1254;64271;-49
2023/05/11 01:07:04;;;;;;;16.20;7.20;;;;;;;5.54;100.00;101419.81;105721;1253;61653;-48
2023/05/11 01:09:45;;;;;;;17.70;7.70;;;;;;;5.52;100.00;101448.02;105666;1254;75086;-48
2023/05/11 01:12:29;;;;;;;16.90;6.50;;;;;;;5.50;100.00;101482.39;105716;1254;67053;-49
2023/05/11 01:15:24;;;;;;;15.20;7.00;;;;;;;5.49;100.00;101517.15;105763;1254;75301;-49
2023/05/11 01:18:09;;;;;;;15.40;6.60;;;;;;;5.51;100.00;101545.77;105713;1254;62496;-49
2023/05/11 01:20:37;;;;;;;19.00;7.80;;;;;;;5.54;100.00;101574.94;105674;1254;62167;-49
2023/05/11 01:23:07;;;;;;;14.50;7.30;;;;;;;5.57;100.00;101599.49;105639;1254;75550;-48
2023/05/11 01:25:49;;;;;;;11.30;6.20;;;;;;;5.60;100.00;101621.66;105661;1253;67554;-49
2023/05/11 01:28:22;;;;;;;16.20;7.10;;;;;;;5.62;100.00;101640.19;105695;1259;74556;-48
2023/05/11 01:30:52;;;;;;;15.30;7.40;;;;;;;5.62;100.00;101654.73;105696;1254;62732;-49
2023/05/11 01:33:23;;;;;;;18.70;7.20;;;;;;;5.61;100.00;101664.15;105716;1254;62897;-49
2023/05/11 01:35:52;;;;;;;10.70;7.10;;;;;;;5.65;100.00;101672.95;105739;1258;76003;-48
2023/05/11 01:38:20;;;;;;;25.30;6.80;;;;;;;5.70;100.00;101686.96;105687;1254;66654;-48
2023/05/11 01:40:51;;;;;;;12.10;5.60;;;;;;;5.72;100.00;101697.79;105700;1254;74317;-48
2023/05/11 01:43:20;;;;;;;17.30;6.80;;;;;;;5.77;100.00;101696.68;105695;1259;62989;-49
2023/05/11 01:45:47;;;;;;;15.30;5.80;;;;;;;5.84;100.00;101696.83;105725;1254;61531;-49
2023/05/11 01:48:20;;;;;;;12.70;7.20;;;;;;;5.88;100.00;101694.17;105715;1254;75134;-49
2023/05/11 01:50:47;;;;;;;9.40;6.40;;;;;;;5.91;100.00;101693.20;105646;1254;67180;-49
2023/05/11 01:53:14;;;;;;;13.80;6.50;;;;;;;5.91;100.00;101690.12;105646;1254;75072;-49
2023/05/11 01:55:41;;;;;;;10.40;6.30;;;;;;;5.91;100.00;101683.77;105605;1254;65172;-48
2023/05/11 01:58:09;;;;;;;9.90;5.30;;;;;;;5.91;100.00;101678.63;105749;1254;62768;-48
2023/05/11 02:00:36;;;;;;;13.00;7.10;;;;;;;5.92;100.00;101679.70;105681;1260;76312;-48
2023/05/11 02:03:04;;;;;;;11.90;6.30;;;;;;;5.97;100.00;101672.09;105774;1254;66802;-48
2023/05/11 02:05:32;;;;;;;13.10;6.20;;;;;;;6.01;100.00;101670.48;105676;1254;74142;-48
2023/05/11 02:08:00;;;;;;;13.20;6.00;;;;;;;6.00;100.00;101664.78;105667;1254;64421;-48
2023/05/11 02:10:27;;;;;;;14.30;6.10;;;;;;;6.04;100.00;101662.99;105646;1254;62171;-48
2023/05/11 02:12:54;;;;;;;12.60;5.60;;;;;;;6.08;100.00;101653.66;105635;1254;75546;-47
2023/05/11 02:15:22;;;;;;;11.70;6.10;;;;;;;6.10;100.00;101641.70;105687;1258;67364;-49
2023/05/11 02:17:50;;;;;;;14.60;5.50;;;;;;;6.12;100.00;101630.23;105720;1258;75412;-49
2023/05/11 02:20:17;;;;;;;19.30;6.00;;;;;;;6.11;100.00;101609.47;105682;1254;63078;-49
2023/05/11 02:22:45;;;;;;;13.20;5.30;;;;;;;6.12;100.00;101595.27;105704;1254;62531;-50
2023/05/11 02:25:12;;;;;;;13.30;5.30;;;;;;;6.13;100.00;101578.50;105644;1261;74970;-48
2023/05/11 02:27:39;;;;;;;18.90;5.40;;;;;;;6.12;100.00;101556.02;105790;1254;66126;-49
2023/05/11 02:30:07;;;;;;;12.30;4.80;;;;;;;6.11;100.00;101538.17;105678;1254;74947;-48
2023/05/11 02:32:37;;;;;;;10.20;5.90;;;;;;;6.11;100.00;101512.64;105702;1257;63286;-49
2023/05/11 02:35:16;;;;;;;11.00;5.90;;;;;;;6.07;100.00;101496.13;105703;1254;62570;-49
2023/05/11 02:37:44;;;;;;;12.70;5.50;;;;;;;6.01;100.00;101480.78;105703;1254;75434;-49
2023/05/11 02:40:19;;;;;;;8.60;5.30;;;;;;;6.00;100.00;101477.13;105686;1254;67265;-49
2023/05/11 02:42:48;;;;;;;14.80;6.10;;;;;;;6.02;100.00;101479.08;105706;1255;74460;-49
2023/05/11 02:45:15;;;;;;;11.20;5.50;;;;;;;6.02;100.00;101485.77;105724;1254;61962;-49
2023/05/11 02:47:46;;;;;;;13.70;6.30;;;;;;;6.01;100.00;101490.36;105664;1259;61557;-49
2023/05/11 02:50:17;;;;;;;10.90;5.80;;;;;;;5.99;100.00;101494.07;105718;1254;75221;-49
2023/05/11 02:52:46;;;;;;;10.80;5.50;;;;;;;5.98;100.00;101502.98;105703;1253;66527;-49
2023/05/11 02:55:14;;;;;;;14.70;5.60;;;;;;;5.99;100.00;101512.75;105725;1254;73983;-49
2023/05/11 02:57:42;;;;;;;15.00;5.80;;;;;;;6.00;100.00;101517.91;105726;1254;62409;-49
2023/05/11 03:00:10;;;;;;;12.20;5.60;;;;;;;6.02;100.00;101506.84;105687;1254;62072;-49
2023/05/11 03:02:37;;;;;;;17.70;5.40;;;;;;;6.05;100.00;101497.96;105708;1254;75551;-49
2023/05/11 03:05:05;;;;;;;7.50;4.90;;;;;;;6.09;100.00;101480.73;105667;1254;66606;-49
2023/05/11 03:07:33;;;;;;;21.90;6.30;;;;;;;6.16;100.00;101452.55;105699;1254;75254;-49
2023/05/11 03:10:01;;;;;;;11.60;5.20;;;;;;;6.23;100.00;101419.08;105679;1254;64590;-49
2023/05/11 03:12:33;;;;;;;10.50;4.40;;;;;;;6.31;100.00;101370.00;105663;1259;63027;-49
2023/05/11 03:15:01;;;;;;;11.00;4.70;;;;;;;6.36;100.00;101318.63;105703;1258;76581;-49
2023/05/11 03:17:28;;;;;;;14.70;5.20;;;;;;;6.42;100.00;101260.57;105717;1254;66680;-48
2023/05/11 03:19:55;;;;;;;9.50;4.60;;;;;;;6.48;100.00;101222.40;105667;1259;73834;-49
2023/05/11 03:22:23;;;;;;;15.20;4.90;;;;;;;6.54;100.00;101203.93;105698;1254;63068;-49
2023/05/11 03:24:50;;;;;;;19.80;4.40;;;;;;;6.59;100.00;101199.02;105695;1254;63062;-49
2023/05/11 03:27:18;;;;;;;17.60;5.30;;;;;;;6.66;100.00;101199.92;105666;1254;75613;-49
2023/05/11 03:29:45;;;;;;;23.30;5.00;;;;;;;6.73;100.00;101206.19;105671;1254;66471;-49
2023/05/11 03:32:12;;;;;;;14.10;4.40;;;;;;;6.78;100.00;101217.21;105436;1261;74196;-50
2023/05/11 03:34:40;;;;;;;9.70;4.70;;;;;;;6.85;100.00;101224.65;105410;1254;61179;-48
2023/05/11 03:37:09;;;;;;;15.10;4.30;;;;;;;6.90;100.00;101249.92;105661;1254;63310;-49
2023/05/11 03:39:36;;;;;;;9.20;4.60;;;;;;;6.97;100.00;101261.99;105659;1259;74739;-50
2023/05/11 03:42:04;;;;;;;9.40;4.30;;;;;;;7.01;100.00;101265.48;105671;1259;65994;-49
2023/05/11 03:44:32;;;;;;;10.80;4.60;;;;;;;7.06;100.00;101280.79;105681;1258;75117;-49
2023/05/11 03:47:00;;;;;;;12.80;4.30;;;;;;;7.09;100.00;101299.36;105678;1259;62963;-49
2023/05/11 03:49:27;;;;;;;6.50;4.20;;;;;;;7.13;100.00;101311.40;105680;1254;62782;-49
2023/05/11 03:51:55;;;;;;;10.70;4.30;;;;;;;7.15;100.00;101340.09;105734;1254;76012;-49
2023/05/11 03:54:23;;;;;;;12.10;4.50;;;;;;;7.17;100.00;101359.17;105676;1254;67262;-49
2023/05/11 03:56:50;;;;;;;10.40;4.70;;;;;;;7.19;100.00;101372.58;105649;1257;74246;-49
2023/05/11 03:59:18;;;;;;;14.40;4.40;;;;;;;7.20;100.00;101384.61;105544;1255;60417;-49
2023/05/11 04:02:41;;;;;;;9.30;4.00;;;;;;;7.25;100.00;101392.05;102576;1296;600970;-49
2023/05/11 04:05:11;;;;;;;7.90;4.40;;;;;;;7.25;100.00;101405.27;104707;1266;62185;-49
2023/05/11 04:07:40;;;;;;;9.40;4.00;;;;;;;7.29;100.00;101413.55;104823;1267;61519;-50
2023/05/11 04:10:07;;;;;;;7.60;4.40;;;;;;;7.34;100.00;101415.14;104789;1271;74733;-49
2023/05/11 04:12:34;;;;;;;6.60;4.40;;;;;;;7.39;100.00;101417.41;104789;1266;65585;-49
2023/05/11 04:15:01;;;;;;;11.00;4.00;;;;;;;7.43;100.00;101427.08;104783;1272;74818;-52
2023/05/11 04:17:29;;;;;;;11.40;4.10;;;;;;;7.46;100.00;101438.30;105409;1253;251160;-50
2023/05/11 04:19:55;;;;;;;10.10;4.20;;;;;;;7.52;100.00;101444.00;105715;1257;62063;-48
2023/05/11 04:22:23;;;;;;;9.00;4.50;;;;;;;7.59;100.00;101445.96;105631;1259;74017;-48
2023/05/11 04:24:50;;;;;;;12.00;4.40;;;;;;;7.67;100.00;101454.29;105624;1253;67267;-50
2023/05/11 04:27:17;;;;;;;6.30;3.40;;;;;;;7.78;100.00;101449.75;105735;1253;73383;-49
2023/05/11 04:29:44;;;;;;;6.30;4.00;;;;;;;7.92;100.00;101451.92;105670;1256;61013;-49
2023/05/11 04:32:11;;;;;;;13.60;4.10;;;;;;;7.99;100.00;101464.20;105712;1258;61856;-49
2023/05/11 04:34:38;;;;;;;9.90;4.10;;;;;;;8.03;100.00;101471.63;105743;1253;73241;-49
2023/05/11 04:37:07;;;;;;;14.20;3.90;;;;;;;8.06;100.00;101480.41;105673;1254;65510;-48
2023/05/11 04:39:36;;;;;;;10.20;4.10;;;;;;;8.10;100.00;101485.44;105699;1252;75356;-48
2023/05/11 04:42:04;;;;;;;7.70;3.60;;;;;;;8.15;100.00;101486.51;105722;1255;60785;-49
2023/05/11 04:44:31;;;;;;;6.60;3.40;;;;;;;8.20;100.00;101489.13;105738;1257;63325;-50
2023/05/11 04:46:58;;;;;;;13.70;3.90;;;;;;;8.27;100.00;101497.45;105656;1258;75467;-52
2023/05/11 04:49:26;;;;;;;7.20;3.90;;;;;;;8.42;100.00;101497.71;105654;1260;66959;-49
2023/05/11 04:51:53;;;;;;;10.90;3.80;;;;;;;8.66;100.00;101494.46;105727;1254;73530;-49
2023/05/11 04:54:20;;;;;;;8.50;3.70;;;;;;;9.00;100.00;101494.13;105661;1258;61486;-50
2023/05/11 04:56:48;;;;;;;8.50;3.70;;;;;;;9.36;100.00;101488.58;105666;1259;61952;-48
2023/05/11 04:59:15;;;;;;;7.60;3.80;;;;;;;9.63;99.96;101482.63;105690;1256;75638;-49
2023/05/11 05:01:42;;;;;;;12.10;3.20;;;;;;;9.92;97.75;101493.87;105698;1258;66525;-48
2023/05/11 05:04:09;;;;;;;9.10;3.50;;;;;;;10.26;87.33;101481.45;105715;1254;73721;-50
2023/05/11 05:06:37;;;;;;;13.20;3.20;;;;;;;10.56;80.72;101484.55;105672;1253;63786;-50
2023/05/11 05:09:04;;;;;;;4.80;3.30;;;;;;;10.84;73.84;101477.58;105637;1258;61197;-49
2023/05/11 05:11:32;;;;;;;7.10;3.30;;;;;;;11.10;74.04;101491.30;105684;1258;75454;-50
2023/05/11 05:14:00;;;;;;;7.30;2.90;;;;;;;11.29;71.18;101477.91;105689;1259;67633;-49
2023/05/11 05:16:27;;;;;;;10.80;3.50;;;;;;;11.44;67.73;101474.02;105659;1253;75328;-50
2023/05/11 05:18:57;;;;;;;12.00;3.10;;;;;;;11.58;66.82;101482.92;105655;1254;61582;-52
2023/05/11 05:21:25;;;;;;;7.50;3.00;;;;;;;11.78;66.13;101485.04;105712;1254;62906;-51
2023/05/11 05:23:52;;;;;;;5.40;2.70;;;;;;;11.97;64.03;101457.58;105698;1253;74600;-49
2023/05/11 05:26:20;;;;;;;6.30;3.00;;;;;;;12.11;63.23;101457.67;105667;1257;67436;-49
2023/05/11 05:28:48;;;;;;;8.50;2.80;;;;;;;12.23;61.78;101441.98;105736;1258;75699;-49
2023/05/11 05:31:16;;;;;;;5.90;2.70;;;;;;;12.33;60.50;101423.87;105628;1254;63100;-49
2023/05/11 05:33:43;;;;;;;8.60;3.00;;;;;;;12.49;59.79;101427.01;105693;1258;61467;-50
2023/05/11 05:36:10;;;;;;;11.20;2.80;;;;;;;12.60;58.95;101415.27;105624;1258;75560;-50
2023/05/11 05:38:37;;;;;;;8.70;3.00;;;;;;;12.68;58.55;101426.62;105654;1253;66867;-50
2023/05/11 05:41:05;;;;;;;5.40;2.50;;;;;;;12.85;59.04;101454.12;105704;1253;75404;-50
2023/05/11 05:43:36;;;;;;;9.50;2.60;;;;;;;13.08;56.90;101360.45;105635;1253;61329;-51
2023/05/11 05:46:03;;;;;;;7.90;1.80;;;;;;;13.18;55.90;101349.38;105623;1258;62165;-51
2023/05/11 05:48:30;;;;;;;11.40;2.80;;;;;;;13.31;54.82;101305.16;105677;1258;75542;-50
2023/05/11 05:50:59;;;;;;;4.70;2.50;;;;;;;13.35;53.67;101271.10;105664;1253;67414;-51
2023/05/11 05:53:26;;;;;;;3.00;2.00;;;;;;;13.27;53.01;101264.15;105688;1253;75201;-50
2023/05/11 05:55:53;;;;;;;13.30;3.70;;;;;;;13.31;51.89;101209.13;105652;1254;62630;-50
2023/05/11 05:58:20;;;;;;;10.40;2.40;;;;;;;13.52;50.47;101122.63;105645;1253;62801;-51
2023/05/11 06:00:48;;;;;;;6.20;2.20;;;;;;;13.65;49.79;101093.38;105616;1260;75414;-50
2023/05/11 06:03:15;;;;;;;6.80;2.10;;;;;;;13.66;48.67;101030.95;105646;1260;66898;-50
2023/05/11 06:05:42;;;;;;;3.60;1.80;;;;;;;13.66;49.07;101102.73;105629;1257;74464;-50
2023/05/11 06:08:10;;;;;;;9.40;2.00;;;;;;;13.85;49.24;101129.90;105630;1259;63056;-50
2023/05/11 06:10:38;;;;;;;8.00;1.90;;;;;;;14.07;48.17;101039.91;105673;1254;62799;-49
2023/05/11 06:13:06;;;;;;;5.90;2.50;;;;;;;14.23;47.98;101037.42;105658;1257;74463;-49
2023/05/11 06:15:34;;;;;;;7.30;2.00;;;;;;;14.35;47.36;100988.86;105683;1253;67049;-49
2023/05/11 06:18:07;;;;;;;12.40;2.10;;;;;;;14.45;47.12;100982.02;105638;1254;75495;-49
2023/05/11 06:20:35;;;;;;;6.40;1.60;;;;;;;14.57;46.28;100923.52;105691;1253;62159;-48
2023/05/11 06:23:03;;;;;;;3.20;1.60;;;;;;;14.71;44.85;100789.77;105693;1257;61819;-48
2023/05/11 06:25:34;;;;;;;2.20;1.30;;;;;;;14.82;44.33;100753.84;105652;1253;75775;-49
2023/05/11 06:28:02;;;;;;;5.60;1.60;;;;;;;14.88;44.02;100741.81;105728;1253;67616;-49
2023/05/11 06:30:30;;;;;;;7.40;1.40;;;;;;;14.93;43.58;100700.13;105631;1253;73983;-49
2023/05/11 06:32:57;;;;;;;1.50;1.40;;;;;;;15.05;43.83;100741.11;105687;1253;62270;-49
2023/05/11 06:35:24;;;;;;;1.50;1.40;;;;;;;15.23;43.33;100701.58;105645;1260;61482;-49
2023/05/11 06:37:51;;;;;;;8.40;1.30;;;;;;;15.38;42.33;100606.31;105632;1254;74813;-49
2023/05/11 06:40:18;;;;;;;5.60;1.40;;;;;;;15.43;40.01;100327.06;105677;1254;66567;-50
2023/05/11 06:42:46;;;;;;;8.40;1.90;;;;;;;15.49;38.80;100211.00;105698;1253;74162;-49
2023/05/11 06:45:13;;;;;;;2.20;1.30;;;;;;;15.54;38.24;100132.56;105652;1258;62317;-50
2023/05/11 06:47:41;;;;;;;1.90;1.20;;;;;;;15.60;37.67;100090.58;105669;1253;61496;-50
2023/05/11 06:50:08;;;;;;;3.10;1.30;;;;;;;15.68;37.37;100053.65;105692;1254;74418;-50
2023/05/11 06:52:36;;;;;;;4.20;1.20;;;;;;;15.73;37.09;100033.43;105662;1253;66132;-50
2023/05/11 06:55:04;;;;;;;2.50;1.30;;;;;;;15.79;37.01;100058.90;105673;1258;75299;-50
2023/05/11 06:57:31;;;;;;;3.10;1.50;;;;;;;15.86;35.68;99905.14;105656;1254;62151;-50
2023/05/11 06:59:58;;;;;;;1.90;1.00;;;;;;;15.84;35.82;99927.15;105630;1253;62353;-50
2023/05/11 07:02:26;;;;;;;2.10;1.20;;;;;;;15.77;35.17;99859.33;105743;1253;75060;-50
2023/05/11 07:04:53;;;;;;;9.20;1.40;;;;;;;15.68;35.79;99930.86;105685;1253;66671;-49
2023/05/11 07:07:21;;;;;;;4.40;1.60;;;;;;;15.87;35.99;99969.14;105655;1254;75449;-49
2023/05/11 07:09:48;;;;;;;4.00;1.00;;;;;;;16.20;36.19;99999.76;105701;1258;63475;-50
2023/05/11 07:12:15;;;;;;;3.10;1.10;;;;;;;16.45;35.32;99924.50;105684;1258;61855;-50
2023/05/11 07:14:42;;;;;;;3.00;1.10;;;;;;;16.63;34.02;99777.62;105653;1258;75585;-50
2023/05/11 07:17:09;;;;;;;1.10;1.10;;;;;;;16.75;34.37;99788.30;105681;1257;67308;-50
2023/05/11 07:19:37;;;;;;;6.20;1.40;;;;;;;16.92;33.49;99706.68;105753;1254;74031;-51
2023/05/11 07:22:04;;;;;;;5.50;1.00;;;;;;;17.03;32.94;99613.22;105632;1254;62882;-50
2023/05/11 07:24:32;;;;;;;7.50;1.00;;;;;;;17.06;32.00;99521.89;105679;1253;62917;-50
2023/05/11 07:27:00;;;;;;;6.90;1.20;;;;;;;17.02;32.49;99545.68;105579;1258;75196;-50
2023/05/11 07:29:27;;;;;;;2.90;1.30;;;;;;;17.04;32.54;99554.59;105570;1258;67000;-49
2023/05/11 07:31:55;;;;;;;3.00;1.50;;;;;;;17.12;32.20;99537.09;105347;1253;75159;-49
2023/05/11 07:34:23;;;;;;;2.20;1.40;;;;;;;16.94;31.93;99481.61;105550;1253;62685;-50
2023/05/11 07:36:50;;;;;;;3.10;1.50;;;;;;;16.80;32.10;99482.46;105661;1253;61193;-54
2023/05/11 07:39:18;;;;;;;6.10;1.20;;;;;;;16.81;32.86;99600.17;105658;1253;75484;-50
2023/05/11 07:41:46;;;;;;;1.80;1.30;;;;;;;17.01;31.58;99498.98;105743;1253;66052;-50
2023/05/11 07:44:13;;;;;;;7.30;1.20;;;;;;;17.14;31.67;99461.67;105692;1254;74999;-49
2023/05/11 07:46:40;;;;;;;3.50;1.60;;;;;;;17.25;32.16;99515.53;105697;1253;62727;-49
2023/05/11 07:49:09;;;;;;;1.00;1.00;;;;;;;17.42;31.83;99486.61;105697;1257;61448;-49
2023/05/11 07:51:46;;;;;;;1.30;1.10;;;;;;;17.61;31.68;99486.46;105668;1253;74352;-49
2023/05/11 07:54:13;;;;;;;8.10;1.40;;;;;;;17.87;31.99;99520.77;105640;1253;66581;-50
2023/05/11 07:56:40;;;;;;;2.00;1.40;;;;;;;18.15;31.97;99525.65;105720;1254;73241;-50
2023/05/11 07:59:08;;;;;;;6.20;1.30;;;;;;;18.28;30.19;99324.35;105643;1253;62929;-50
2023/05/11 08:01:35;;;;;;;5.00;1.50;;;;;;;18.16;30.11;99282.40;105634;1258;61828;-49
2023/05/11 08:04:02;;;;;;;1.20;1.10;;;;;;;18.10;30.28;99286.14;105626;1258;74110;-49
2023/05/11 08:06:30;;;;;;;2.60;1.50;;;;;;;18.17;30.31;99305.73;105638;1253;65449;-49
2023/05/11 08:08:57;;;;;;;4.00;1.50;;;;;;;18.23;29.88;99252.75;105657;1253;75323;-50
2023/05/11 08:11:25;;;;;;;2.60;1.60;;;;;;;18.29;29.55;99210.11;105672;1253;62713;-50
2023/05/11 08:13:52;;;;;;;9.30;2.00;;;;;;;18.18;29.27;99176.99;105637;1255;62847;-50
2023/05/11 08:16:19;;;;;;;4.90;2.30;;;;;;;17.79;29.60;99216.09;105662;1258;76516;-50
2023/05/11 08:18:46;;;;;;;9.50;1.60;;;;;;;17.49;30.32;99298.34;105656;1255;66103;-50
2023/05/11 08:21:13;;;;;;;7.30;3.80;;;;;;;17.51;30.54;99347.75;105686;1254;74231;-50
2023/05/11 08:23:40;;;;;;;3.70;1.90;;;;;;;17.70;29.93;99289.83;105670;1253;62905;-50
2023/05/11 08:26:10;;;;;;;5.50;1.60;;;;;;;17.90;29.89;99275.73;105665;1254;62433;-50
2023/05/11 08:28:37;;;;;;;5.90;1.70;;;;;;;17.97;30.11;99295.41;105639;1253;75181;-50
2023/05/11 08:31:05;;;;;;;3.60;1.60;;;;;;;17.96;29.41;99209.40;105649;1253;65961;-50
2023/05/11 08:33:32;;;;;;;5.90;1.70;;;;;;;17.86;30.03;99269.40;105640;1255;74225;-50
2023/05/11 08:36:05;;;;;;;5.30;1.90;;;;;;;17.95;29.61;99252.40;105623;1253;62211;-50
2023/05/11 08:38:34;;;;;;;5.90;1.70;;;;;;;17.90;29.83;99251.35;105752;1257;62567;-51
2023/05/11 08:41:01;;;;;;;11.20;1.60;;;;;;;17.96;30.47;99332.06;105687;1253;74976;-50
2023/05/11 08:43:28;;;;;;;6.80;1.40;;;;;;;18.13;30.09;99306.00;105683;1253;66837;-50
2023/05/11 08:45:56;;;;;;;3.40;1.60;;;;;;;18.26;30.04;99280.67;105642;1255;75028;-50
2023/05/11 08:48:24;;;;;;;2.10;1.90;;;;;;;18.34;30.11;99281.00;105734;1257;61844;-50
2023/05/11 08:50:51;;;;;;;5.60;1.90;;;;;;;18.30;30.21;99296.16;105621;1255;61007;-51
2023/05/11 08:53:17;;;;;;;3.70;1.80;;;;;;;18.32;29.74;99268.02;105627;1258;74992;-51
2023/05/11 08:55:44;;;;;;;3.50;2.40;;;;;;;18.27;30.08;99304.91;105668;1253;67069;-48
2023/05/11 08:58:13;;;;;;;2.60;2.40;;;;;;;18.16;30.20;99323.77;105623;1254;74311;-49
2023/05/11 09:00:41;;;;;;;7.10;4.10;;;;;;;18.10;30.11;99333.45;105654;1253;61977;-49
2023/05/11 09:03:08;;;;;;;5.20;3.00;;;;;;;17.79;28.96;99215.95;105592;1255;62570;-49
2023/05/11 09:05:35;;;;;;;16.80;2.60;;;;;;;17.39;30.20;99314.52;105592;1260;74458;-49
2023/05/11 09:08:03;;;;;;;15.00;3.00;;;;;;;17.46;30.20;99361.86;105693;1253;66123;-48
2023/05/11 09:10:30;;;;;;;5.90;2.50;;;;;;;17.68;29.78;99302.19;105685;1258;75396;-48
2023/05/11 09:12:56;;;;;;;4.30;2.90;;;;;;;17.81;29.57;99306.38;105630;1258;63125;-49
2023/05/11 09:15:23;;;;;;;7.30;3.10;;;;;;;17.92;29.77;99296.55;105686;1257;62105;-49
2023/05/11 09:17:50;;;;;;;7.50;2.70;;;;;;;18.12;29.86;99294.22;105666;1258;75969;-49
2023/05/11 09:20:28;;;;;;;12.30;3.20;;;;;;;18.50;30.01;99331.74;105653;1253;66092;-49
2023/05/11 09:22:55;;;;;;;3.30;2.60;;;;;;;18.76;28.37;99152.27;105699;1253;74000;-49
2023/05/11 09:25:23;;;;;;;11.00;3.10;;;;;;;18.80;28.82;99174.17;105669;1253;63140;-49
2023/05/11 09:27:50;;;;;;;3.80;2.70;;;;;;;18.81;29.01;99173.04;105722;1253;63119;-49
2023/05/11 09:30:18;;;;;;;4.70;2.20;;;;;;;19.03;28.07;99082.71;105696;1257;76377;-49
2023/05/11 09:32:50;;;;;;;4.30;3.00;;;;;;;19.08;28.30;99073.20;105705;1253;67742;-49
2023/05/11 09:35:25;;;;;;;3.80;2.60;;;;;;;19.24;27.85;99041.76;105690;1253;73395;-49
2023/05/11 09:38:05;;;;;;;10.00;3.30;;;;;;;19.25;28.54;99084.77;105726;1253;62017;-48
2023/05/11 09:40:53;;;;;;;4.80;3.20;;;;;;;19.19;28.68;99125.03;105687;1253;61674;-50
2023/05/11 09:43:28;;;;;;;8.50;3.80;;;;;;;18.94;28.64;99103.58;105674;1253;75624;-51
2023/05/11 09:45:57;;;;;;;12.60;3.50;;;;;;;18.64;29.15;99189.16;105706;1256;66362;-51
2023/05/11 09:48:28;;;;;;;4.70;2.60;;;;;;;18.25;29.18;99198.17;105677;1258;74259;-51
2023/05/11 09:51:06;;;;;;;5.80;2.30;;;;;;;17.91;29.85;99278.33;105677;1253;62581;-51
2023/05/11 09:53:44;;;;;;;5.90;2.20;;;;;;;17.64;29.53;99285.52;105707;1253;61281;-49
2023/05/11 09:56:12;;;;;;;5.20;2.50;;;;;;;17.38;29.58;99290.36;105709;1254;75219;-52
2023/05/11 09:58:50;;;;;;;11.80;2.10;;;;;;;17.18;30.26;99353.66;105683;1253;66305;-50
2023/05/11 10:01:27;;;;;;;7.20;2.10;;;;;;;17.13;30.66;99395.67;105715;1253;75349;-52
2023/05/11 10:03:54;;;;;;;6.60;3.10;;;;;;;17.14;30.28;99398.91;105703;1253;62804;-50
2023/05/11 10:07:05;;;;;;;8.40;3.20;;;;;;;17.06;29.87;99353.58;105649;1259;62898;-50
2023/05/11 10:09:33;;;;;;;4.40;2.10;;;;;;;16.99;30.44;99396.35;105652;1258;76088;-51
2023/05/11 10:12:00;;;;;;;7.40;2.30;;;;;;;17.00;31.23;99489.86;105617;1253;67716;-52
2023/05/11 10:14:28;;;;;;;8.10;2.10;;;;;;;17.00;30.65;99449.59;105655;1255;74825;-50
2023/05/11 10:16:56;;;;;;;5.80;2.10;;;;;;;16.96;30.44;99417.39;105619;1256;63420;-51
2023/05/11 10:19:23;;;;;;;5.70;2.20;;;;;;;16.98;30.29;99431.21;105684;1253;61185;-50
2023/05/11 10:21:50;;;;;;;6.00;2.10;;;;;;;17.03;30.36;99434.58;105710;1258;76316;-50
2023/05/11 10:24:18;;;;;;;7.90;2.10;;;;;;;17.11;30.94;99466.89;105720;1258;65083;-49
2023/05/11 10:26:46;;;;;;;2.80;1.90;;;;;;;17.30;30.59;99475.30;105636;1255;74485;-50
2023/05/11 10:29:13;;;;;;;4.00;1.80;;;;;;;17.43;30.30;99443.44;105652;1253;62991;-51
2023/05/11 10:31:40;;;;;;;4.00;1.70;;;;;;;17.46;29.62;99379.09;105682;1260;63158;-50
2023/05/11 10:34:08;;;;;;;2.70;1.80;;;;;;;17.45;30.21;99421.02;105682;1258;74862;-50
2023/05/11 10:36:35;;;;;;;4.90;1.70;;;;;;;17.59;30.58;99451.36;105689;1253;65827;-50
2023/05/11 10:39:02;;;;;;;6.30;1.90;;;;;;;17.73;30.07;99425.71;105701;1257;75633;-50
2023/05/11 10:41:41;;;;;;;11.70;2.40;;;;;;;17.86;29.85;99393.44;105649;1253;63213;-50
2023/05/11 10:44:39;;;;;;;1.80;1.30;;;;;;;18.35;29.31;99338.21;105743;1253;62504;-49
2023/05/11 10:47:10;;;;;;;1.70;1.10;;;;;;;18.57;28.39;99221.77;105655;1253;76832;-50
2023/05/11 10:49:46;;;;;;;6.10;1.70;;;;;;;18.70;27.49;99113.79;105656;1258;66981;-50
2023/05/11 10:52:13;;;;;;;2.10;1.40;;;;;;;18.63;27.75;99123.34;105697;1254;75146;-49
2023/05/11 10:54:47;;;;;;;4.30;1.50;;;;;;;18.50;28.61;99155.92;105635;1256;62133;-49
2023/05/11 10:57:21;;;;;;;6.30;0.90;;;;;;;18.09;28.91;99201.88;105670;1258;62521;-50
2023/05/11 11:00:09;;;;;;;4.30;1.10;;;;;;;17.71;28.97;99260.98;105726;1258;76610;-48
2023/05/11 11:02:36;;;;;;;3.80;1.50;;;;;;;17.30;29.50;99309.88;105571;1258;66139;-50
2023/05/11 11:05:09;;;;;;;2.80;1.90;;;;;;;17.12;30.33;99387.15;105274;1256;74138;-50
2023/05/11 11:08:03;;;;;;;3.00;1.60;;;;;;;17.24;30.94;99457.36;105726;1259;61886;-51
2023/05/11 11:10:50;;;;;;;2.20;1.60;;;;;;;17.51;29.72;99393.75;105673;1258;61070;-50
2023/05/11 11:13:18;;;;;;;4.70;1.40;;;;;;;17.58;30.33;99421.73;105672;1253;76461;-49
2023/05/11 11:15:53;;;;;;;2.40;1.40;;;;;;;17.90;29.14;99333.31;105665;1258;67179;-49
2023/05/11 11:18:32;;;;;;;5.90;1.40;;;;;;;17.94;28.42;99241.42;105692;1256;74041;-50
2023/05/11 11:21:00;;;;;;;1.70;1.60;;;;;;;17.81;29.32;99295.56;105719;1258;61927;-50
2023/05/11 11:23:42;;;;;;;6.60;1.60;;;;;;;17.68;29.26;99321.20;105672;1253;63170;-49
2023/05/11 11:26:14;;;;;;;4.20;1.40;;;;;;;17.40;29.48;99328.05;105717;1257;76305;-51